Time;durP1;ratioP1;P1;durP2;ratioP2;P2;SDS_P1;SDS_P2;PMS_P1;PMS_P2;Temp;Humidity;BMP_temperature;BMP_pressure;BME280_temperature;BME280_humidity;BME280_pressure;Samples;Min_cycle;Max_cycle;Signal;HPM_P1;HPM_P2
2022/06/25 00:02:16;;;;;;;9.00;8.10;;;19.40;99.90;;;;;;5112137;28;20461;-64
2022/06/25 00:07:28;;;;;;;8.50;7.90;;;19.40;99.90;;;;;;5112949;28;20849;-63
2022/06/25 00:09:57;;;;;;;10.83;9.33;;;19.30;99.90;;;;;;5112568;28;20564;-63
2022/06/25 00:12:33;;;;;;;8.80;8.10;;;19.30;99.90;;;;;;5112701;28;20738;-62
2022/06/25 00:15:01;;;;;;;8.73;8.03;;;19.30;99.90;;;;;;5112683;28;20465;-63
2022/06/25 00:17:28;;;;;;;8.90;8.20;;;19.20;99.90;;;;;;5112533;28;20977;-64
2022/06/25 00:19:56;;;;;;;9.20;8.40;;;19.20;99.90;;;;;;5113216;28;20949;-63
2022/06/25 00:22:23;;;;;;;8.87;8.07;;;19.20;99.90;;;;;;5112378;28;20632;-64
2022/06/25 00:24:50;;;;;;;9.60;8.80;;;19.20;99.90;;;;;;5113741;28;20498;-63
2022/06/25 00:27:19;;;;;;;8.77;7.97;;;19.20;99.90;;;;;;5115556;28;20477;-63
2022/06/25 00:29:46;;;;;;;9.10;8.40;;;19.20;99.90;;;;;;5116863;28;20460;-63
2022/06/25 00:32:14;;;;;;;8.67;7.80;;;19.20;99.90;;;;;;5116212;28;20505;-64
2022/06/25 00:34:41;;;;;;;8.47;7.77;;;19.20;99.90;;;;;;5099558;28;20535;-63
2022/06/25 00:37:09;;;;;;;8.60;8.00;;;19.20;99.90;;;;;;5116263;28;20565;-62
2022/06/25 00:39:37;;;;;;;8.50;7.67;;;19.20;99.90;;;;;;5116575;28;20545;-63
2022/06/25 00:42:10;;;;;;;10.13;9.23;;;19.20;99.90;;;;;;5116858;28;20510;-63
2022/06/25 00:44:39;;;;;;;10.17;9.17;;;19.20;99.90;;;;;;5117903;28;20433;-62
2022/06/25 00:47:09;;;;;;;9.43;8.53;;;19.20;99.90;;;;;;5117055;28;20573;-62
2022/06/25 00:49:37;;;;;;;8.10;7.40;;;19.10;99.90;;;;;;5117115;28;20525;-62
2022/06/25 00:52:09;;;;;;;8.27;7.57;;;19.20;99.90;;;;;;5116785;28;20488;-64
2022/06/25 00:54:39;;;;;;;9.20;8.50;;;19.20;99.90;;;;;;5116858;28;20553;-62
2022/06/25 00:57:08;;;;;;;8.60;8.00;;;19.20;99.90;;;;;;5114671;28;20534;-65
2022/06/25 00:59:43;;;;;;;8.60;7.90;;;19.20;99.90;;;;;;5118903;28;20488;-62
2022/06/25 01:02:10;;;;;;;8.63;7.83;;;19.20;99.90;;;;;;5117930;28;20457;-63
2022/06/25 01:04:38;;;;;;;8.97;8.07;;;19.20;99.90;;;;;;5115763;28;20980;-62
2022/06/25 01:07:06;;;;;;;8.90;8.30;;;19.20;99.90;;;;;;5116041;28;20477;-63
2022/06/25 01:09:33;;;;;;;9.00;8.17;;;19.20;99.90;;;;;;5115364;28;20464;-63
2022/06/25 01:12:00;;;;;;;8.83;8.13;;;19.20;99.90;;;;;;5116862;28;20593;-63
2022/06/25 01:14:27;;;;;;;8.07;7.47;;;19.10;99.90;;;;;;5116538;28;21009;-63
2022/06/25 01:16:56;;;;;;;9.10;8.40;;;19.10;99.90;;;;;;5116656;28;20902;-63
2022/06/25 01:19:24;;;;;;;8.80;7.90;;;19.00;99.90;;;;;;5116227;28;21019;-63
2022/06/25 01:21:51;;;;;;;7.90;7.20;;;19.00;99.90;;;;;;5116271;28;20936;-62
2022/06/25 01:24:20;;;;;;;8.60;7.90;;;19.00;99.90;;;;;;5117310;28;20470;-64
2022/06/25 01:26:47;;;;;;;8.67;7.97;;;18.90;99.90;;;;;;5116017;28;20837;-63
2022/06/25 01:29:14;;;;;;;8.43;7.73;;;18.80;99.90;;;;;;5114115;28;20550;-63
2022/06/25 01:31:41;;;;;;;8.30;7.60;;;18.80;99.90;;;;;;5116141;28;20529;-63
2022/06/25 01:34:09;;;;;;;8.87;8.27;;;18.80;99.90;;;;;;5116032;28;20488;-63
2022/06/25 01:36:36;;;;;;;8.43;7.73;;;18.80;99.90;;;;;;5112351;28;20514;-61
2022/06/25 01:39:04;;;;;;;8.53;7.90;;;18.70;99.90;;;;;;5115724;28;20468;-63
2022/06/25 01:41:32;;;;;;;8.97;8.20;;;18.70;99.90;;;;;;5115338;28;20478;-65
2022/06/25 01:43:59;;;;;;;10.07;9.17;;;18.70;99.90;;;;;;5115798;28;20522;-63
2022/06/25 01:46:27;;;;;;;9.17;8.17;;;18.70;99.90;;;;;;5115902;28;20463;-65
2022/06/25 01:48:54;;;;;;;9.33;8.63;;;18.60;99.90;;;;;;5115497;28;20552;-64
2022/06/25 01:51:21;;;;;;;11.00;8.57;;;18.60;99.90;;;;;;5115536;28;20465;-64
2022/06/25 01:53:49;;;;;;;9.63;8.93;;;18.60;99.90;;;;;;5115343;28;20970;-64
2022/06/25 01:56:16;;;;;;;9.13;8.43;;;18.60;99.90;;;;;;5115683;28;20489;-64
2022/06/25 01:58:45;;;;;;;10.33;8.00;;;18.60;99.90;;;;;;5114356;28;20935;-62
2022/06/25 02:01:12;;;;;;;9.20;8.50;;;18.60;99.90;;;;;;5112933;28;20654;-63
2022/06/25 02:03:40;;;;;;;9.00;8.20;;;18.60;99.90;;;;;;5112962;28;20490;-64
2022/06/25 02:06:07;;;;;;;9.50;8.70;;;18.60;99.90;;;;;;5115047;28;20473;-64
2022/06/25 02:08:36;;;;;;;8.90;8.00;;;18.50;99.90;;;;;;5113787;28;20497;-64
2022/06/25 02:11:06;;;;;;;8.40;7.80;;;18.50;99.90;;;;;;5115073;28;21029;-64
2022/06/25 02:13:34;;;;;;;8.93;8.33;;;18.50;99.90;;;;;;5115744;28;20461;-64
2022/06/25 02:16:04;;;;;;;9.27;8.57;;;18.50;99.90;;;;;;5115480;28;20980;-64
2022/06/25 02:18:32;;;;;;;8.93;8.20;;;18.40;99.90;;;;;;5115281;28;20509;-63
2022/06/25 02:20:59;;;;;;;9.20;8.40;;;18.40;99.90;;;;;;5115021;28;20547;-63
2022/06/25 02:23:26;;;;;;;9.87;8.93;;;18.40;99.90;;;;;;5114715;28;20461;-62
2022/06/25 02:25:54;;;;;;;10.03;8.47;;;18.40;99.90;;;;;;5113380;28;20481;-63
2022/06/25 02:28:21;;;;;;;9.57;8.77;;;18.30;99.90;;;;;;5114671;28;20490;-63
2022/06/25 02:30:48;;;;;;;9.47;8.67;;;18.40;99.90;;;;;;5114333;28;20556;-64
2022/06/25 02:33:17;;;;;;;8.20;7.40;;;18.30;99.90;;;;;;5114625;28;20521;-64
2022/06/25 02:35:45;;;;;;;9.77;8.73;;;18.30;99.90;;;;;;5113646;28;20833;-64
2022/06/25 02:38:14;;;;;;;9.53;8.73;;;18.30;99.90;;;;;;5113703;28;20493;-65
2022/06/25 02:40:41;;;;;;;9.90;8.37;;;18.30;99.90;;;;;;5115498;28;20441;-63
2022/06/25 02:43:09;;;;;;;9.37;8.67;;;18.30;99.90;;;;;;5114644;28;20555;-63
2022/06/25 02:45:36;;;;;;;9.70;8.90;;;18.30;99.90;;;;;;5113497;28;20529;-63
2022/06/25 02:48:03;;;;;;;9.50;8.70;;;18.30;99.90;;;;;;5112126;28;20519;-64
2022/06/25 02:50:32;;;;;;;9.77;9.07;;;18.30;99.90;;;;;;5113084;28;20497;-64
2022/06/25 02:52:59;;;;;;;9.70;8.80;;;18.20;99.90;;;;;;5113639;28;20456;-63
2022/06/25 03:00:53;;;;;;;11.13;8.90;;;18.20;99.90;;;;;;5113820;28;20472;-63
2022/06/25 03:03:20;;;;;;;8.53;7.73;;;18.10;99.90;;;;;;5112924;28;20493;-63
2022/06/25 03:05:49;;;;;;;10.93;9.07;;;18.10;99.90;;;;;;5114805;28;20524;-63
2022/06/25 03:08:17;;;;;;;9.50;8.70;;;18.10;99.90;;;;;;5112793;28;20533;-64
2022/06/25 03:10:45;;;;;;;9.17;8.27;;;18.10;99.90;;;;;;5113704;28;20498;-63
2022/06/25 03:13:12;;;;;;;9.03;8.10;;;18.10;99.90;;;;;;5113672;28;20457;-63
2022/06/25 03:15:39;;;;;;;9.90;9.10;;;18.10;99.90;;;;;;5111460;28;20480;-63
2022/06/25 03:18:07;;;;;;;11.43;10.30;;;18.20;99.90;;;;;;5113305;28;20552;-63
2022/06/25 03:20:34;;;;;;;11.50;10.50;;;18.20;99.90;;;;;;5114606;28;20514;-63
2022/06/25 03:23:03;;;;;;;11.37;10.37;;;18.20;99.90;;;;;;5113930;28;20464;-63
2022/06/25 03:25:31;;;;;;;9.07;8.30;;;18.20;99.90;;;;;;5114220;28;20493;-63
2022/06/25 03:27:58;;;;;;;10.20;9.30;;;18.20;99.90;;;;;;5110935;28;20505;-63
2022/06/25 03:30:26;;;;;;;9.80;8.90;;;18.20;99.90;;;;;;5112262;28;20580;-64
2022/06/25 03:32:53;;;;;;;8.60;7.90;;;18.30;99.90;;;;;;5102165;28;20878;-62
2022/06/25 03:35:20;;;;;;;9.30;8.70;;;18.30;99.90;;;;;;5113223;28;20508;-64
2022/06/25 03:37:48;;;;;;;11.20;10.00;;;18.30;99.90;;;;;;5113377;28;20544;-64
2022/06/25 03:40:18;;;;;;;8.70;8.00;;;18.30;99.90;;;;;;5112011;28;20460;-64
2022/06/25 03:42:45;;;;;;;10.13;8.37;;;18.30;99.90;;;;;;5113927;28;20559;-63
2022/06/25 03:45:12;;;;;;;9.70;8.80;;;18.30;99.90;;;;;;5112462;28;20546;-64
2022/06/25 03:47:40;;;;;;;9.07;8.27;;;18.40;99.90;;;;;;5113365;28;20473;-64
2022/06/25 03:50:08;;;;;;;9.73;8.80;;;18.40;99.90;;;;;;5113892;28;20487;-63
2022/06/25 03:52:35;;;;;;;8.80;7.90;;;18.40;99.90;;;;;;5118172;28;20453;-63
2022/06/25 03:55:03;;;;;;;8.80;7.80;;;18.50;99.90;;;;;;5130569;28;20453;-64
2022/06/25 03:57:31;;;;;;;8.13;7.53;;;18.60;99.90;;;;;;5119293;28;20534;-64
2022/06/25 03:59:59;;;;;;;8.30;7.53;;;18.70;99.90;;;;;;5118429;28;20457;-64
2022/06/25 04:02:26;;;;;;;8.00;7.40;;;18.70;99.90;;;;;;5121504;28;20945;-62
2022/06/25 04:04:53;;;;;;;10.13;7.50;;;18.80;99.90;;;;;;5117112;28;20468;-62
2022/06/25 04:09:55;;;;;;;7.67;7.00;;;19.00;99.90;;;;;;5116685;27;20556;-63
2022/06/25 04:12:23;;;;;;;10.40;7.53;;;19.00;99.90;;;;;;5112198;28;20458;-63
2022/06/25 04:14:50;;;;;;;9.23;6.60;;;19.10;99.90;;;;;;5114012;28;20473;-62
2022/06/25 04:17:17;;;;;;;6.90;6.30;;;19.10;99.90;;;;;;5113023;28;20534;-63
2022/06/25 04:19:44;;;;;;;7.20;6.60;;;19.20;99.90;;;;;;5110204;28;20485;-63
2022/06/25 04:22:12;;;;;;;7.50;6.90;;;19.30;99.90;;;;;;5110099;28;20455;-63
2022/06/25 04:24:42;;;;;;;7.47;6.73;;;19.30;99.90;;;;;;5110177;28;20466;-63
2022/06/25 04:29:03;;;;;;;6.60;5.67;;;19.40;99.90;;;;;;5102410;28;20476;-63
2022/06/25 04:29:57;;;;;;;5.97;5.40;;;19.50;99.90;;;;;;5095647;28;21659;-64
2022/06/25 04:32:24;;;;;;;7.83;6.03;;;19.60;99.90;;;;;;5097862;28;20538;-63
2022/06/25 04:34:52;;;;;;;5.80;5.20;;;19.90;99.90;;;;;;5096276;28;20455;-63
2022/06/25 04:37:19;;;;;;;5.47;4.97;;;20.30;99.90;;;;;;5089557;28;20535;-63
2022/06/25 04:39:46;;;;;;;5.60;5.10;;;20.60;99.90;;;;;;5108827;28;20882;-63
2022/06/25 04:42:15;;;;;;;5.37;4.50;;;21.00;99.90;;;;;;5108335;28;20502;-63
2022/06/25 04:44:42;;;;;;;5.53;5.00;;;21.20;99.90;;;;;;5113321;28;20497;-63
2022/06/25 04:47:10;;;;;;;4.50;4.20;;;21.30;99.90;;;;;;5109011;28;20888;-63
2022/06/25 04:49:37;;;;;;;5.23;4.53;;;21.30;99.90;;;;;;5106938;28;20982;-63
2022/06/25 04:52:05;;;;;;;4.60;4.20;;;21.20;99.90;;;;;;5094404;28;20465;-63
2022/06/25 04:54:33;;;;;;;5.70;5.07;;;21.20;99.90;;;;;;5110097;28;20812;-63
2022/06/25 04:57:00;;;;;;;5.20;4.80;;;21.20;99.90;;;;;;5102623;28;20481;-64
2022/06/25 04:59:29;;;;;;;5.77;4.17;;;21.20;99.90;;;;;;5108312;28;20520;-62
2022/06/25 05:01:56;;;;;;;4.83;4.00;;;21.30;99.90;;;;;;5109481;28;20553;-63
2022/06/25 05:04:23;;;;;;;5.50;4.37;;;21.40;99.90;;;;;;5110908;28;20490;-62
2022/06/25 05:06:50;;;;;;;4.20;3.90;;;21.40;99.90;;;;;;5092609;28;20468;-62
2022/06/25 05:09:18;;;;;;;5.60;4.33;;;21.50;99.90;;;;;;5101370;28;20544;-62
2022/06/25 05:11:45;;;;;;;9.60;4.00;;;21.60;99.60;;;;;;5092085;28;20464;-63
2022/06/25 05:14:13;;;;;;;5.03;4.53;;;21.70;99.30;;;;;;5110395;28;20477;-62
2022/06/25 05:16:41;;;;;;;4.13;3.80;;;21.80;98.90;;;;;;5108919;28;20824;-63
2022/06/25 05:19:09;;;;;;;4.07;3.77;;;22.00;98.40;;;;;;5106906;28;21018;-62
2022/06/25 05:21:36;;;;;;;5.33;3.43;;;22.20;97.90;;;;;;5085391;28;20473;-62
2022/06/25 05:24:04;;;;;;;4.90;4.07;;;22.60;97.40;;;;;;5096000;28;20470;-63
2022/06/25 05:26:31;;;;;;;3.20;3.00;;;23.40;95.80;;;;;;5091483;28;20531;-64
2022/06/25 05:28:58;;;;;;;4.40;3.33;;;24.10;93.20;;;;;;5108827;22;20501;-62
2022/06/25 05:31:26;;;;;;;3.47;3.17;;;24.40;91.20;;;;;;5020158;28;20539;-62
2022/06/25 05:33:55;;;;;;;3.70;3.30;;;24.60;89.20;;;;;;5022889;28;20458;-63
2022/06/25 05:36:22;;;;;;;3.20;3.00;;;24.40;87.40;;;;;;5014547;28;20512;-62
2022/06/25 05:38:49;;;;;;;3.80;3.03;;;24.30;87.60;;;;;;5030355;28;20564;-62
2022/06/25 05:41:17;;;;;;;3.83;3.00;;;24.20;87.70;;;;;;5034316;28;20465;-61
2022/06/25 05:43:44;;;;;;;3.57;3.20;;;24.50;87.40;;;;;;4998847;28;20441;-64
2022/06/25 05:46:11;;;;;;;5.43;3.47;;;25.10;84.40;;;;;;5015289;28;20460;-64
2022/06/25 05:48:39;;;;;;;5.57;3.03;;;25.90;79.70;;;;;;5034210;28;20563;-64
2022/06/25 05:51:08;;;;;;;2.80;2.60;;;26.40;75.50;;;;;;5031316;28;20540;-63
2022/06/25 05:53:36;;;;;;;5.33;3.13;;;26.90;71.70;;;;;;5010679;28;20465;-62
2022/06/25 05:56:03;;;;;;;3.93;3.07;;;27.30;68.90;;;;;;5028049;28;20809;-62
2022/06/25 05:58:31;;;;;;;3.90;2.70;;;27.40;66.80;;;;;;5021254;28;20473;-63
2022/06/25 06:00:58;;;;;;;3.20;2.43;;;27.40;65.50;;;;;;5026489;28;20518;-63
2022/06/25 06:03:25;;;;;;;2.80;2.50;;;27.20;64.10;;;;;;5034915;28;20452;-63
2022/06/25 06:05:52;;;;;;;2.90;2.60;;;27.00;63.60;;;;;;5018491;28;20497;-63
2022/06/25 06:08:21;;;;;;;4.83;2.17;;;26.80;63.50;;;;;;5032255;28;22073;-63
2022/06/25 06:10:48;;;;;;;3.10;2.70;;;26.70;64.30;;;;;;5035355;28;20463;-62
2022/06/25 06:13:16;;;;;;;3.63;2.60;;;26.50;62.70;;;;;;5033813;28;20461;-64
2022/06/25 06:15:43;;;;;;;4.43;2.70;;;26.40;62.90;;;;;;5017480;28;20945;-63
2022/06/25 06:18:10;;;;;;;2.30;1.80;;;26.50;62.60;;;;;;5030802;28;20519;-64
2022/06/25 06:20:38;;;;;;;2.10;1.90;;;26.50;61.80;;;;;;5016631;28;20520;-63
2022/06/25 06:23:06;;;;;;;2.57;2.30;;;26.10;61.10;;;;;;5015478;28;20835;-64
2022/06/25 06:25:34;;;;;;;3.13;2.10;;;25.70;61.40;;;;;;5023785;28;20811;-63
2022/06/25 06:28:02;;;;;;;3.27;2.27;;;25.40;62.00;;;;;;5020051;28;20988;-64
2022/06/25 06:30:29;;;;;;;3.20;2.37;;;25.30;62.60;;;;;;5023181;28;20572;-64
2022/06/25 06:32:56;;;;;;;2.73;2.53;;;25.10;62.90;;;;;;5030558;28;20460;-63
2022/06/25 06:35:24;;;;;;;2.27;1.90;;;25.10;63.20;;;;;;5034786;28;20955;-63
2022/06/25 06:37:51;;;;;;;2.90;2.20;;;25.10;63.30;;;;;;5035691;28;20445;-65
2022/06/25 06:40:18;;;;;;;2.60;2.37;;;25.00;63.80;;;;;;5035585;28;20491;-63
2022/06/25 06:42:47;;;;;;;3.80;3.07;;;24.80;64.20;;;;;;5035497;28;20441;-63
2022/06/25 06:45:15;;;;;;;2.63;2.43;;;24.70;64.80;;;;;;5035099;28;20445;-64
2022/06/25 06:47:42;;;;;;;2.40;2.20;;;24.50;65.40;;;;;;5015881;28;20519;-65
2022/06/25 06:50:10;;;;;;;5.50;2.90;;;24.30;66.20;;;;;;5024799;28;20531;-63
2022/06/25 06:52:38;;;;;;;2.40;2.20;;;24.30;67.00;;;;;;5035785;28;20473;-64
2022/06/25 06:55:06;;;;;;;3.03;2.60;;;24.30;67.20;;;;;;5033861;28;20622;-65
2022/06/25 06:57:34;;;;;;;2.93;2.40;;;24.30;67.70;;;;;;5034648;28;20456;-65
2022/06/25 07:00:04;;;;;;;5.07;2.57;;;24.30;68.00;;;;;;5034066;28;20469;-64
2022/06/25 07:02:31;;;;;;;3.00;2.20;;;24.30;67.80;;;;;;5019801;28;20457;-64
2022/06/25 07:04:59;;;;;;;2.47;2.27;;;24.30;67.70;;;;;;5027547;28;20500;-64
2022/06/25 07:07:26;;;;;;;2.27;2.07;;;24.20;67.90;;;;;;5010375;28;20466;-64
2022/06/25 07:09:54;;;;;;;4.00;2.33;;;24.30;68.10;;;;;;5011716;28;20481;-65
2022/06/25 07:12:21;;;;;;;2.53;2.30;;;24.30;67.80;;;;;;4994447;28;20483;-64
2022/06/25 07:14:48;;;;;;;2.77;2.00;;;24.40;67.70;;;;;;5007621;28;20715;-65
2022/06/25 07:17:17;;;;;;;5.80;2.40;;;24.40;67.60;;;;;;5020044;28;20503;-63
2022/06/25 07:19:44;;;;;;;2.70;2.40;;;24.40;67.40;;;;;;5033547;28;20461;-64
2022/06/25 07:22:11;;;;;;;2.23;2.00;;;24.40;67.60;;;;;;5013673;28;20532;-64
2022/06/25 07:24:39;;;;;;;3.83;2.10;;;24.30;67.50;;;;;;5009335;28;20600;-64
2022/06/25 07:27:06;;;;;;;2.00;1.67;;;24.30;66.50;;;;;;5025652;28;20449;-63
2022/06/25 07:29:34;;;;;;;2.77;2.40;;;24.30;66.40;;;;;;5018811;28;20936;-63
2022/06/25 07:32:01;;;;;;;2.10;1.80;;;24.30;65.60;;;;;;5013780;28;20881;-63
2022/06/25 07:34:29;;;;;;;2.13;1.90;;;24.30;65.10;;;;;;5014067;28;20540;-64
2022/06/25 07:36:57;;;;;;;4.87;1.83;;;24.30;64.90;;;;;;5013658;28;20503;-65
2022/06/25 07:39:24;;;;;;;3.40;1.90;;;24.30;64.70;;;;;;5017706;28;20493;-61
2022/06/25 07:41:51;;;;;;;2.30;1.90;;;24.30;64.10;;;;;;5032287;28;20464;-61
2022/06/25 07:44:19;;;;;;;2.00;1.80;;;24.30;64.20;;;;;;5030032;28;20519;-61
2022/06/25 07:46:46;;;;;;;1.80;1.70;;;24.40;63.70;;;;;;5034170;28;20499;-63
2022/06/25 07:49:17;;;;;;;2.70;2.10;;;24.60;63.50;;;;;;5035326;28;20476;-64
2022/06/25 07:51:56;;;;;;;3.63;2.03;;;24.70;63.20;;;;;;5033255;28;20842;-61
2022/06/25 07:54:25;;;;;;;1.73;1.57;;;25.00;62.70;;;;;;5032936;28;20435;-60
2022/06/25 07:56:52;;;;;;;2.00;1.40;;;25.00;61.50;;;;;;5029844;28;20460;-61
2022/06/25 07:59:20;;;;;;;1.97;1.63;;;24.90;61.50;;;;;;5033095;28;20878;-61
2022/06/25 08:01:47;;;;;;;3.37;2.00;;;24.90;61.70;;;;;;5032880;28;20444;-61
2022/06/25 08:04:15;;;;;;;1.63;1.53;;;24.90;61.40;;;;;;5033039;28;20449;-60
2022/06/25 08:06:46;;;;;;;1.90;1.80;;;25.00;61.10;;;;;;5036132;28;20448;-57
2022/06/25 08:09:15;;;;;;;2.20;1.70;;;25.00;60.70;;;;;;5036149;28;21019;-59
2022/06/25 08:11:42;;;;;;;1.93;1.63;;;25.10;60.70;;;;;;5017538;28;20481;-60
2022/06/25 08:14:09;;;;;;;2.93;1.47;;;25.00;60.50;;;;;;5012102;28;20462;-58
2022/06/25 08:16:38;;;;;;;5.90;1.80;;;25.00;60.50;;;;;;5017321;28;20445;-60
2022/06/25 08:19:05;;;;;;;3.00;1.90;;;25.10;60.50;;;;;;5013451;28;20484;-58
2022/06/25 08:21:32;;;;;;;1.67;1.57;;;25.10;60.40;;;;;;5027448;28;20445;-61
2022/06/25 08:24:00;;;;;;;4.23;1.70;;;25.10;60.10;;;;;;5033048;28;20449;-60
2022/06/25 08:26:28;;;;;;;3.37;1.97;;;25.10;60.40;;;;;;5033111;28;20479;-59
2022/06/25 08:28:56;;;;;;;2.30;1.90;;;25.30;60.00;;;;;;5034812;28;20485;-60
2022/06/25 08:31:24;;;;;;;3.53;1.90;;;25.40;59.30;;;;;;5036243;28;20495;-59
2022/06/25 08:33:51;;;;;;;3.50;1.83;;;25.40;59.10;;;;;;5020363;28;20925;-59
2022/06/25 08:36:18;;;;;;;2.30;1.57;;;25.50;58.80;;;;;;5017286;28;20457;-59
2022/06/25 08:38:46;;;;;;;2.70;1.97;;;25.60;58.50;;;;;;5017603;28;20465;-59
2022/06/25 08:41:13;;;;;;;2.40;1.47;;;25.60;58.30;;;;;;5016437;28;20892;-59
2022/06/25 08:43:42;;;;;;;2.20;1.90;;;25.60;58.20;;;;;;5025578;28;20468;-58
2022/06/25 08:46:10;;;;;;;1.77;1.63;;;25.60;58.10;;;;;;5036629;28;20449;-58
2022/06/25 08:48:38;;;;;;;2.60;1.70;;;25.80;57.90;;;;;;5035239;28;20968;-59
2022/06/25 08:51:08;;;;;;;2.37;2.00;;;26.00;57.20;;;;;;5034565;28;20999;-59
2022/06/25 08:53:36;;;;;;;4.30;2.10;;;26.20;56.30;;;;;;5033991;28;20451;-58
2022/06/25 08:56:04;;;;;;;2.80;1.77;;;26.20;55.50;;;;;;5018911;28;20548;-59
2022/06/25 08:58:32;;;;;;;2.03;1.50;;;26.20;55.00;;;;;;5016552;28;20514;-59
2022/06/25 09:01:01;;;;;;;1.97;1.60;;;26.20;55.30;;;;;;5021210;28;20960;-59
2022/06/25 09:03:28;;;;;;;1.70;1.60;;;26.30;54.50;;;;;;5021418;28;20539;-58
2022/06/25 09:05:56;;;;;;;3.53;2.07;;;26.40;53.90;;;;;;5035772;28;20530;-59
2022/06/25 09:08:23;;;;;;;3.70;1.63;;;26.30;53.60;;;;;;5036486;28;20461;-58
2022/06/25 09:10:54;;;;;;;1.40;1.30;;;26.40;53.60;;;;;;5036122;28;20480;-57
2022/06/25 09:13:25;;;;;;;3.30;2.23;;;26.40;53.60;;;;;;5036541;28;20429;-59
2022/06/25 09:15:52;;;;;;;5.10;1.57;;;26.70;53.50;;;;;;5036062;28;20608;-60
2022/06/25 09:18:21;;;;;;;2.50;1.63;;;26.90;53.20;;;;;;5036177;28;22142;-59
2022/06/25 09:20:59;;;;;;;2.13;1.83;;;26.80;53.00;;;;;;5034787;28;20511;-58
2022/06/25 09:23:27;;;;;;;2.30;1.63;;;26.60;53.20;;;;;;5035935;28;20506;-58
2022/06/25 09:26:03;;;;;;;5.80;1.60;;;26.40;53.40;;;;;;5016921;28;20926;-59
2022/06/25 09:28:32;;;;;;;2.80;1.50;;;26.20;53.50;;;;;;5015834;28;20477;-58
2022/06/25 09:30:59;;;;;;;2.37;2.03;;;26.00;53.60;;;;;;5016095;28;20466;-59
2022/06/25 09:33:28;;;;;;;2.77;1.50;;;26.00;54.00;;;;;;5031908;28;20883;-59
2022/06/25 09:35:56;;;;;;;3.00;1.43;;;26.20;53.70;;;;;;5035380;28;20963;-58
2022/06/25 09:38:24;;;;;;;4.40;2.00;;;26.40;53.20;;;;;;5025471;28;20505;-59
2022/06/25 09:41:10;;;;;;;2.20;1.77;;;26.40;53.00;;;;;;5018310;28;20782;-58
2022/06/25 09:43:39;;;;;;;3.43;1.80;;;26.30;53.10;;;;;;5015926;28;20517;-58
2022/06/25 09:46:08;;;;;;;2.33;1.80;;;26.20;53.30;;;;;;5015829;28;20893;-59
2022/06/25 09:48:38;;;;;;;3.37;1.80;;;26.30;53.20;;;;;;5015968;28;20866;-59
2022/06/25 09:51:07;;;;;;;2.40;1.47;;;26.60;53.00;;;;;;5016216;28;20516;-59
2022/06/25 09:53:36;;;;;;;1.70;1.60;;;27.00;52.10;;;;;;5016152;28;20453;-59
2022/06/25 09:56:04;;;;;;;3.53;2.27;;;27.50;51.20;;;;;;5015778;28;20477;-58
2022/06/25 09:58:32;;;;;;;2.40;1.47;;;27.80;50.30;;;;;;5015859;28;20477;-59
2022/06/25 10:01:00;;;;;;;1.80;1.60;;;27.80;49.40;;;;;;5015466;28;20450;-58
2022/06/25 10:03:30;;;;;;;3.57;1.67;;;27.90;49.40;;;;;;5015303;28;20456;-60
2022/06/25 10:06:00;;;;;;;2.80;1.87;;;27.80;49.40;;;;;;5015199;28;20434;-59
2022/06/25 10:08:30;;;;;;;2.60;1.73;;;27.70;49.50;;;;;;5015587;28;20508;-60
2022/06/25 10:10:58;;;;;;;2.30;1.67;;;27.60;49.40;;;;;;5016017;28;20504;-58
2022/06/25 10:13:26;;;;;;;4.13;2.00;;;27.40;49.50;;;;;;5015389;28;20446;-59
2022/06/25 10:15:55;;;;;;;1.93;1.83;;;27.20;49.90;;;;;;5014967;28;20515;-57
2022/06/25 10:18:23;;;;;;;2.07;1.67;;;27.10;50.20;;;;;;5014869;28;20838;-60
2022/06/25 10:20:51;;;;;;;1.90;1.60;;;26.90;50.30;;;;;;5015165;28;20512;-59
2022/06/25 10:23:22;;;;;;;2.60;1.87;;;26.90;50.60;;;;;;5017036;28;20478;-61
2022/06/25 10:25:50;;;;;;;2.50;2.00;;;26.90;50.80;;;;;;5014921;28;20957;-59
2022/06/25 10:28:25;;;;;;;2.43;1.83;;;27.00;50.60;;;;;;5015014;28;20801;-60
2022/06/25 10:30:54;;;;;;;3.00;2.03;;;26.90;50.80;;;;;;5014861;28;21014;-60
2022/06/25 10:33:23;;;;;;;2.20;2.00;;;26.90;51.40;;;;;;5015336;28;20882;-59
2022/06/25 10:35:51;;;;;;;3.63;2.47;;;27.10;50.50;;;;;;5014758;28;20481;-59
2022/06/25 10:38:22;;;;;;;2.40;2.20;;;27.30;49.90;;;;;;5015392;28;20524;-58
2022/06/25 10:40:58;;;;;;;1.90;1.80;;;27.70;49.40;;;;;;5015333;28;20429;-59
2022/06/25 10:43:45;;;;;;;2.50;1.70;;;28.10;48.50;;;;;;5014839;28;20491;-59
2022/06/25 10:46:41;;;;;;;3.27;2.00;;;28.40;47.60;;;;;;5014556;28;20453;-60
2022/06/25 10:49:10;;;;;;;2.10;1.67;;;28.60;47.30;;;;;;5002139;28;20543;-60
2022/06/25 10:51:45;;;;;;;1.87;1.57;;;28.70;47.00;;;;;;5014590;28;20517;-60
2022/06/25 10:54:37;;;;;;;1.93;1.70;;;29.00;46.60;;;;;;5017697;28;20450;-60
2022/06/25 10:57:05;;;;;;;2.20;1.77;;;29.30;46.10;;;;;;5017136;28;20434;-60
2022/06/25 10:59:48;;;;;;;1.80;1.70;;;29.60;45.30;;;;;;5017425;28;20480;-59
2022/06/25 11:02:17;;;;;;;2.07;1.40;;;29.90;44.60;;;;;;5023604;28;20430;-59
2022/06/25 11:04:52;;;;;;;2.27;1.90;;;30.10;44.10;;;;;;5021491;28;20450;-59
2022/06/25 11:07:20;;;;;;;2.13;1.93;;;30.00;43.70;;;;;;5016943;28;20450;-60
2022/06/25 11:09:57;;;;;;;2.47;1.83;;;29.70;43.80;;;;;;5016776;28;20524;-60
2022/06/25 11:12:26;;;;;;;2.07;1.50;;;29.30;44.30;;;;;;5016893;28;20874;-60
2022/06/25 11:15:00;;;;;;;2.83;1.80;;;29.10;44.90;;;;;;5016978;28;20449;-59
2022/06/25 11:17:27;;;;;;;3.10;1.60;;;29.10;44.90;;;;;;5016424;28;20439;-60
2022/06/25 11:19:55;;;;;;;1.90;1.70;;;28.90;45.00;;;;;;5017646;28;20466;-60
2022/06/25 11:22:22;;;;;;;2.53;1.80;;;28.60;45.40;;;;;;5015665;28;20453;-59
2022/06/25 11:30:23;;;;;;;2.13;1.70;;;28.50;46.30;;;;;;5046550;22;20506;-63
2022/06/25 11:32:52;;;;;;;2.30;2.10;;;28.70;46.00;;;;;;5034448;28;20433;-63
2022/06/25 11:35:20;;;;;;;2.90;2.20;;;28.70;45.80;;;;;;5034242;28;20803;-64
2022/06/25 11:37:47;;;;;;;2.73;1.87;;;28.70;45.90;;;;;;5033941;28;20483;-64
2022/06/25 11:40:15;;;;;;;2.10;1.90;;;29.00;45.70;;;;;;5034036;28;20546;-64
2022/06/25 11:42:45;;;;;;;2.13;1.60;;;29.30;45.10;;;;;;5033898;28;20956;-64
2022/06/25 11:45:12;;;;;;;2.30;1.87;;;29.60;44.60;;;;;;5033345;28;20456;-64
2022/06/25 11:47:40;;;;;;;2.17;1.90;;;29.50;44.40;;;;;;5033587;28;20449;-65
2022/06/25 11:50:09;;;;;;;1.87;1.77;;;29.20;44.70;;;;;;5033658;28;20484;-64
2022/06/25 11:52:42;;;;;;;3.97;1.97;;;28.90;45.00;;;;;;5033895;28;20498;-63
2022/06/25 11:55:11;;;;;;;3.10;1.93;;;28.70;45.20;;;;;;5033125;28;20433;-64
2022/06/25 11:57:42;;;;;;;1.87;1.70;;;28.70;45.30;;;;;;5033018;28;20472;-64
2022/06/25 12:00:14;;;;;;;2.57;2.00;;;28.60;46.00;;;;;;5033778;28;20483;-63
2022/06/25 12:02:43;;;;;;;2.50;2.10;;;28.70;45.50;;;;;;5033084;28;20432;-64
2022/06/25 12:05:11;;;;;;;2.33;1.73;;;28.80;45.40;;;;;;5033370;28;20448;-63
2022/06/25 12:07:39;;;;;;;2.20;2.00;;;29.10;44.90;;;;;;5033337;28;20448;-65
2022/06/25 12:10:09;;;;;;;5.40;2.00;;;29.20;44.60;;;;;;5032864;28;20835;-65
2022/06/25 12:12:38;;;;;;;2.23;1.73;;;29.70;44.00;;;;;;5032923;28;20449;-64
2022/06/25 12:15:07;;;;;;;2.43;1.90;;;30.70;42.40;;;;;;5033224;28;20541;-64
2022/06/25 12:17:37;;;;;;;1.57;1.47;;;31.10;41.20;;;;;;5033141;28;20453;-64
2022/06/25 12:20:07;;;;;;;2.57;1.50;;;31.60;40.30;;;;;;5032858;28;20499;-64
2022/06/25 12:22:38;;;;;;;2.20;2.00;;;32.10;39.50;;;;;;5032987;28;20872;-65
2022/06/25 12:25:07;;;;;;;2.10;1.90;;;31.90;39.50;;;;;;5032684;28;20546;-64
2022/06/25 12:27:46;;;;;;;2.30;1.77;;;31.40;40.10;;;;;;5033357;28;20484;-64
2022/06/25 12:30:14;;;;;;;1.90;1.70;;;30.70;41.20;;;;;;5033927;28;20512;-64
2022/06/25 12:32:44;;;;;;;2.10;1.90;;;30.30;41.80;;;;;;5037243;28;20448;-63
2022/06/25 12:35:18;;;;;;;3.20;2.00;;;31.00;41.20;;;;;;5037484;28;20867;-65
2022/06/25 12:38:01;;;;;;;2.30;2.10;;;31.90;40.00;;;;;;5037589;28;20432;-64
2022/06/25 12:40:28;;;;;;;3.37;3.07;;;32.50;38.80;;;;;;5036369;28;20976;-65
2022/06/25 12:42:57;;;;;;;2.00;1.80;;;32.60;38.50;;;;;;5036634;28;20455;-64
2022/06/25 12:45:24;;;;;;;6.13;2.40;;;32.40;38.50;;;;;;5036238;28;20532;-64
2022/06/25 12:47:54;;;;;;;3.00;1.80;;;31.90;38.90;;;;;;5036403;28;20453;-64
2022/06/25 12:50:25;;;;;;;3.10;1.93;;;31.30;39.50;;;;;;5036035;28;21118;-65
2022/06/25 12:52:53;;;;;;;2.37;1.87;;;30.70;40.30;;;;;;5036642;28;20859;-65
2022/06/25 12:55:22;;;;;;;2.00;1.80;;;30.10;41.20;;;;;;5036450;28;20449;-64
2022/06/25 12:57:49;;;;;;;1.70;1.60;;;29.70;41.80;;;;;;5036020;28;20443;-65
2022/06/25 13:00:22;;;;;;;2.07;1.87;;;29.40;42.40;;;;;;5035958;28;21026;-66
2022/06/25 13:02:50;;;;;;;1.97;1.87;;;29.30;42.70;;;;;;5036358;28;20878;-64
2022/06/25 13:05:21;;;;;;;2.50;1.80;;;29.20;42.70;;;;;;5036166;28;20474;-64
2022/06/25 13:07:48;;;;;;;2.77;1.93;;;29.20;43.00;;;;;;5036379;28;20811;-64
2022/06/25 13:10:17;;;;;;;3.10;2.00;;;29.30;42.90;;;;;;5035991;28;20468;-64